createdAt,value
2023-02-08T00:00:58.121Z,-10.37
2023-02-08T00:03:26.025Z,-10.35
2023-02-08T00:05:53.799Z,-10.32
2023-02-08T00:08:21.541Z,-10.35
2023-02-08T00:10:50.098Z,-10.39
2023-02-08T00:13:17.979Z,-10.41
2023-02-08T00:15:46.561Z,-10.41
2023-02-08T00:18:14.596Z,-10.45
2023-02-08T00:20:43.068Z,-10.48
2023-02-08T00:23:11.101Z,-10.54
2023-02-08T00:25:39.013Z,-10.59
2023-02-08T00:28:09.175Z,-10.61
2023-02-08T00:30:37.336Z,-10.65
2023-02-08T00:33:05.264Z,-10.70
2023-02-08T00:35:32.977Z,-10.90
2023-02-08T00:38:00.811Z,-10.82
2023-02-08T00:40:28.741Z,-10.86
2023-02-08T00:42:58.078Z,-10.87
2023-02-08T00:45:25.896Z,-10.89
2023-02-08T00:47:53.646Z,-10.88
2023-02-08T00:50:21.992Z,-10.93
2023-02-08T00:52:50.040Z,-10.95
2023-02-08T00:55:17.875Z,-10.99
2023-02-08T00:57:45.703Z,-11.02
2023-02-08T01:00:14.078Z,-11.04
2023-02-08T01:02:41.882Z,-11.09
2023-02-08T01:05:09.738Z,-11.16
2023-02-08T01:07:38.302Z,-11.29
2023-02-08T01:10:07.319Z,-11.46
2023-02-08T01:12:35.563Z,-11.62
2023-02-08T01:15:03.550Z,-11.70
2023-02-08T01:17:31.524Z,-11.82
2023-02-08T01:19:59.288Z,-11.93
2023-02-08T01:22:29.022Z,-12.02
2023-02-08T01:24:56.888Z,-12.11
2023-02-08T01:27:24.752Z,-12.17
2023-02-08T01:29:53.232Z,-12.20
2023-02-08T01:32:21.210Z,-12.20
2023-02-08T01:34:49.010Z,-12.19
2023-02-08T01:37:16.853Z,-12.18
2023-02-08T01:39:44.670Z,-12.14
2023-02-08T01:42:17.561Z,-12.12
2023-02-08T01:45:16.277Z,-12.05
2023-02-08T01:47:44.987Z,-11.97
2023-02-08T01:50:14.044Z,-11.83
2023-02-08T01:52:42.865Z,-11.62
2023-02-08T01:55:16.637Z,-11.41
2023-02-08T01:57:45.164Z,-11.23
2023-02-08T02:00:22.664Z,-11.05
2023-02-08T02:02:53.879Z,-10.82
2023-02-08T02:05:22.823Z,-10.59
2023-02-08T02:07:50.704Z,-10.32
2023-02-08T02:10:29.824Z,-10.13
2023-02-08T02:12:58.287Z,-10.03
2023-02-08T02:15:26.334Z,-9.91
2023-02-08T02:17:54.205Z,-9.85
2023-02-08T02:20:31.116Z,-9.79
2023-02-08T02:23:13.738Z,-9.67
2023-02-08T02:26:08.317Z,-9.55
2023-02-08T02:28:51.141Z,-9.52
2023-02-08T02:31:37.504Z,-9.52
2023-02-08T02:34:18.144Z,-9.38
2023-02-08T02:36:53.965Z,-9.13
2023-02-08T02:39:28.482Z,-8.93
2023-02-08T02:42:23.820Z,-8.95
2023-02-08T02:45:08.106Z,-8.92
2023-02-08T02:47:59.033Z,-8.94
2023-02-08T02:50:46.930Z,-8.91
2023-02-08T02:53:25.289Z,-8.85
2023-02-08T02:56:02.735Z,-8.88
2023-02-08T02:58:30.749Z,-8.89
2023-02-08T03:00:59.572Z,-8.93
2023-02-08T03:03:28.939Z,-8.84
2023-02-08T03:05:59.781Z,-8.79
2023-02-08T03:08:31.361Z,-8.72
2023-02-08T03:11:19.097Z,-8.70
2023-02-08T03:14:19.407Z,-8.77
2023-02-08T03:17:40.882Z,-8.71
2023-02-08T03:20:10.666Z,-8.73
2023-02-08T03:23:09.120Z,-8.82
2023-02-08T03:25:39.028Z,-8.88
2023-02-08T03:28:20.748Z,-8.87
2023-02-08T03:31:01.620Z,-8.76
2023-02-08T03:33:41.152Z,-8.64
2023-02-08T03:36:22.270Z,-8.50
2023-02-08T03:38:50.284Z,-8.35
2023-02-08T03:41:23.260Z,-8.16
2023-02-08T03:44:06.419Z,-8.12
2023-02-08T03:46:42.843Z,-8.05
2023-02-08T03:49:22.595Z,-7.99
2023-02-08T03:51:50.542Z,-7.99
2023-02-08T03:54:23.293Z,-7.93
2023-02-08T03:57:16.568Z,-7.80
2023-02-08T03:59:47.603Z,-7.65
2023-02-08T04:02:18.517Z,-7.51
2023-02-08T04:04:47.693Z,-7.37
2023-02-08T04:07:15.506Z,-7.11
2023-02-08T04:09:43.408Z,-6.95
2023-02-08T04:12:11.092Z,-6.90
2023-02-08T04:14:38.823Z,-6.92
2023-02-08T04:17:06.672Z,-6.99
2023-02-08T04:19:34.512Z,-7.10
2023-02-08T04:22:02.321Z,-7.09
2023-02-08T04:24:30.145Z,-7.12
2023-02-08T04:26:57.916Z,-7.28
2023-02-08T04:29:25.760Z,-7.47
2023-02-08T04:31:53.661Z,-7.60
2023-02-08T04:34:21.548Z,-7.64
2023-02-08T04:36:49.242Z,-7.65
2023-02-08T04:39:16.987Z,-7.73
2023-02-08T04:41:44.875Z,-7.83
2023-02-08T04:44:12.536Z,-7.89
2023-02-08T04:46:40.477Z,-7.89
2023-02-08T04:49:08.310Z,-7.88
2023-02-08T04:51:36.233Z,-7.81
2023-02-08T04:54:04.082Z,-7.81
2023-02-08T04:56:31.834Z,-7.73
2023-02-08T04:58:59.875Z,-7.61
2023-02-08T05:01:27.819Z,-7.56
2023-02-08T05:03:55.658Z,-7.63
2023-02-08T05:06:26.669Z,-7.62
2023-02-08T05:08:54.488Z,-7.54
2023-02-08T05:11:25.554Z,-7.53
2023-02-08T05:13:53.500Z,-7.53
2023-02-08T05:16:21.214Z,-7.43
2023-02-08T05:18:49.011Z,-7.15
2023-02-08T05:21:16.708Z,-6.84
2023-02-08T05:23:46.438Z,-6.58
2023-02-08T05:26:14.616Z,-6.43
2023-02-08T05:28:42.510Z,-6.19
2023-02-08T05:31:15.445Z,-5.88
2023-02-08T05:33:43.469Z,-5.71
2023-02-08T05:36:11.328Z,-5.56
2023-02-08T05:38:39.136Z,-5.15
2023-02-08T05:41:06.820Z,-4.73
2023-02-08T05:43:34.540Z,-4.59
2023-02-08T05:46:02.349Z,-4.46
2023-02-08T05:48:31.578Z,-4.42
2023-02-08T05:50:59.925Z,-4.36
2023-02-08T05:53:27.982Z,-4.16
2023-02-08T05:55:56.947Z,-4.13
2023-02-08T05:58:24.817Z,-4.35
2023-02-08T06:00:53.880Z,-4.44
2023-02-08T06:03:21.774Z,-4.42
2023-02-08T06:05:49.555Z,-4.30
2023-02-08T06:08:17.369Z,-4.14
2023-02-08T06:10:46.215Z,-3.98
2023-02-08T06:13:14.042Z,-3.86
2023-02-08T06:15:41.794Z,-3.73
2023-02-08T06:18:09.638Z,-3.74
2023-02-08T06:20:39.491Z,-3.70
2023-02-08T06:23:07.576Z,-3.63
2023-02-08T06:25:35.455Z,-3.71
2023-02-08T06:28:03.640Z,-3.80
2023-02-08T06:30:31.555Z,-3.92
2023-02-08T06:32:59.484Z,-4.10
2023-02-08T06:35:27.433Z,-4.10
2023-02-08T06:37:55.378Z,-3.93
2023-02-08T06:40:23.303Z,-3.94
2023-02-08T06:42:51.096Z,-4.05
2023-02-08T06:45:19.173Z,-4.13
2023-02-08T06:47:47.045Z,-4.16
2023-02-08T06:50:15.698Z,-4.12
2023-02-08T06:52:43.535Z,-3.99
2023-02-08T06:55:11.186Z,-3.79
2023-02-08T06:57:38.969Z,-3.64
2023-02-08T07:00:07.277Z,-3.50
2023-02-08T07:02:35.068Z,-3.48
2023-02-08T07:05:02.903Z,-3.44
2023-02-08T07:07:30.841Z,-3.46
2023-02-08T07:09:58.780Z,-3.45
2023-02-08T07:12:26.415Z,-3.58
2023-02-08T07:14:54.206Z,-3.66
2023-02-08T07:17:22.262Z,-3.76
2023-02-08T07:19:50.099Z,-3.80
2023-02-08T07:22:17.808Z,-3.90
2023-02-08T07:24:45.584Z,-4.00
2023-02-08T07:27:13.532Z,-4.03
2023-02-08T07:29:41.458Z,-4.03
2023-02-08T07:32:09.461Z,-4.05
2023-02-08T07:34:38.083Z,-4.03
2023-02-08T07:37:05.733Z,-4.02
2023-02-08T07:39:33.533Z,-4.11
2023-02-08T07:42:01.348Z,-4.17
2023-02-08T07:44:35.195Z,-4.25
2023-02-08T07:47:02.921Z,-4.30
2023-02-08T07:49:31.118Z,-4.41
2023-02-08T07:52:02.183Z,-4.48
2023-02-08T07:54:30.060Z,-4.59
2023-02-08T07:56:57.926Z,-4.67
2023-02-08T07:59:25.836Z,-4.71
2023-02-08T08:01:53.845Z,-4.80
2023-02-08T08:04:22.380Z,-4.84
2023-02-08T08:06:51.953Z,-4.84
2023-02-08T08:09:20.734Z,-4.85
2023-02-08T08:11:48.554Z,-4.79
2023-02-08T08:14:16.313Z,-4.75
2023-02-08T08:16:44.322Z,-4.73
2023-02-08T08:19:12.197Z,-4.71
2023-02-08T08:21:40.058Z,-4.67
2023-02-08T08:24:07.891Z,-4.65
2023-02-08T08:26:35.793Z,-4.66
2023-02-08T08:29:03.584Z,-4.65
2023-02-08T08:31:31.626Z,-4.65
2023-02-08T08:33:59.460Z,-4.58
2023-02-08T08:36:27.217Z,-4.54
2023-02-08T08:38:54.958Z,-4.46
2023-02-08T08:41:23.585Z,-4.36
2023-02-08T08:43:51.322Z,-4.30
2023-02-08T08:46:19.399Z,-4.28
2023-02-08T08:48:47.226Z,-4.23
2023-02-08T08:51:15.101Z,-4.12
2023-02-08T08:53:42.999Z,-4.01
2023-02-08T08:56:10.815Z,-3.90
2023-02-08T08:58:38.642Z,-3.89
2023-02-08T09:01:06.534Z,-3.95
2023-02-08T09:03:34.367Z,-4.02
2023-02-08T09:06:02.143Z,-4.09
2023-02-08T09:08:30.016Z,-4.06
2023-02-08T09:10:57.773Z,-4.05
2023-02-08T09:13:25.593Z,-4.05
2023-02-08T09:15:53.427Z,-4.04
2023-02-08T09:18:21.312Z,-3.93
2023-02-08T09:20:49.061Z,-3.83
2023-02-08T09:23:16.888Z,-3.87
2023-02-08T09:25:44.742Z,-3.91
2023-02-08T09:28:12.629Z,-3.95
2023-02-08T09:30:40.609Z,-4.04
2023-02-08T09:33:08.473Z,-4.14
2023-02-08T09:35:36.249Z,-4.20
2023-02-08T09:38:05.783Z,-4.32
2023-02-08T09:40:48.678Z,-4.42
2023-02-08T09:43:16.437Z,-4.48
2023-02-08T09:46:00.392Z,-4.56
2023-02-08T09:48:34.606Z,-4.62
2023-02-08T09:51:28.601Z,-4.70
2023-02-08T09:54:09.977Z,-4.97
2023-02-08T09:56:40.809Z,-5.10
2023-02-08T09:59:17.552Z,-5.26
2023-02-08T10:01:45.481Z,-5.40
2023-02-08T10:04:33.492Z,-5.51
2023-02-08T10:07:01.354Z,-5.62
2023-02-08T10:09:29.213Z,-5.69
2023-02-08T10:12:33.937Z,-5.74
2023-02-08T10:15:29.284Z,-5.82
2023-02-08T10:18:00.002Z,-5.87
2023-02-08T10:20:38.232Z,-5.92
2023-02-08T10:23:36.743Z,-5.91
2023-02-08T10:26:29.330Z,-5.92
2023-02-08T10:29:42.361Z,-5.89
2023-02-08T10:32:20.960Z,-5.89
2023-02-08T10:34:51.107Z,-5.84
2023-02-08T10:37:20.709Z,-5.84
2023-02-08T10:39:49.597Z,-5.86
2023-02-08T10:42:19.491Z,-5.83
2023-02-08T10:45:01.908Z,-5.78
2023-02-08T10:47:56.410Z,-5.65
2023-02-08T10:50:37.695Z,-5.60
2023-02-08T10:53:05.687Z,-5.53
2023-02-08T10:55:36.208Z,-5.47
2023-02-08T10:58:05.867Z,-5.35
2023-02-08T11:00:35.459Z,-5.29
2023-02-08T11:03:12.000Z,-5.20
2023-02-08T11:05:41.120Z,-5.14
2023-02-08T11:08:18.211Z,-5.14
2023-02-08T11:11:09.225Z,-5.13
2023-02-08T11:13:37.695Z,-5.15
2023-02-08T11:16:06.798Z,-5.23
2023-02-08T11:18:42.422Z,-5.35
2023-02-08T11:21:22.082Z,-5.54
2023-02-08T11:23:51.821Z,-5.66
2023-02-08T11:26:24.952Z,-5.83
2023-02-08T11:29:04.165Z,-6.03
2023-02-08T11:31:32.575Z,-6.17
2023-02-08T11:34:05.127Z,-6.28
2023-02-08T11:36:34.487Z,-6.34
2023-02-08T11:39:04.736Z,-6.30
2023-02-08T11:41:32.546Z,-6.25
2023-02-08T11:44:05.096Z,-6.16
2023-02-08T11:46:35.719Z,-6.13
2023-02-08T11:49:04.047Z,-6.13
2023-02-08T11:51:35.837Z,-6.19
2023-02-08T11:54:04.247Z,-6.32
2023-02-08T11:56:33.440Z,-6.41
2023-02-08T11:59:08.137Z,-6.50
2023-02-08T12:01:37.659Z,-6.54
2023-02-08T12:04:10.397Z,-6.54
2023-02-08T12:06:48.659Z,-6.53
2023-02-08T12:09:50.029Z,-6.55
2023-02-08T12:12:29.891Z,-6.55
2023-02-08T12:15:22.206Z,-6.49
2023-02-08T12:18:37.337Z,-6.36
2023-02-08T12:21:14.537Z,-6.23
2023-02-08T12:23:50.354Z,-6.08
2023-02-08T12:26:24.569Z,-5.98
2023-02-08T12:29:07.672Z,-5.87
2023-02-08T12:31:50.505Z,-5.74
2023-02-08T12:34:34.308Z,-5.60
2023-02-08T12:37:32.842Z,-5.45
2023-02-08T12:40:37.098Z,-5.27
2023-02-08T12:43:27.424Z,-5.18
2023-02-08T12:46:13.706Z,-5.14
2023-02-08T12:48:52.956Z,-5.16
2023-02-08T12:51:23.502Z,-5.21
2023-02-08T12:53:54.777Z,-5.15
2023-02-08T12:56:28.574Z,-5.17
2023-02-08T12:59:11.928Z,-5.18
2023-02-08T13:01:45.806Z,-5.13
2023-02-08T13:04:14.472Z,-5.03
2023-02-08T13:06:43.796Z,-4.97
2023-02-08T13:09:35.409Z,-4.91
2023-02-08T13:12:16.832Z,-4.97
2023-02-08T13:15:28.380Z,-4.98
2023-02-08T13:18:18.634Z,-4.89
2023-02-08T13:20:52.066Z,-4.87
2023-02-08T13:23:34.811Z,-4.87
2023-02-08T13:26:08.677Z,-4.92
2023-02-08T13:28:36.405Z,-5.06
2023-02-08T13:31:09.035Z,-5.18
2023-02-08T13:34:01.996Z,-5.26
2023-02-08T13:36:34.974Z,-5.31
2023-02-08T13:39:04.999Z,-5.36
2023-02-08T13:41:33.132Z,-5.37
2023-02-08T13:44:08.628Z,-5.35
2023-02-08T13:46:49.466Z,-5.45
2023-02-08T13:49:51.163Z,-5.56
2023-02-08T13:52:46.941Z,-5.66
2023-02-08T13:55:38.659Z,-5.74
2023-02-08T13:58:27.590Z,-5.73
2023-02-08T14:00:55.392Z,-5.70
2023-02-08T14:03:29.930Z,-5.73
2023-02-08T14:06:17.456Z,-5.64
2023-02-08T14:08:54.563Z,-5.59
2023-02-08T14:11:31.341Z,-5.60
2023-02-08T14:14:05.545Z,-5.59
2023-02-08T14:16:38.963Z,-5.56
2023-02-08T14:19:34.082Z,-5.42
2023-02-08T14:22:01.725Z,-5.50
2023-02-08T14:24:36.617Z,-5.61
2023-02-08T14:27:23.056Z,-5.60
2023-02-08T14:30:03.890Z,-5.58
2023-02-08T14:32:39.546Z,-5.63
2023-02-08T14:35:16.481Z,-5.68
2023-02-08T14:37:44.790Z,-5.62
2023-02-08T14:40:24.634Z,-5.55
2023-02-08T14:43:19.935Z,-5.52
2023-02-08T14:45:49.058Z,-5.52
2023-02-08T14:48:27.871Z,-5.48
2023-02-08T14:51:10.936Z,-5.51
2023-02-08T14:53:57.835Z,-5.54
2023-02-08T14:56:29.138Z,-5.55
2023-02-08T14:59:12.202Z,-5.49
2023-02-08T15:02:19.021Z,-5.41
2023-02-08T15:04:47.252Z,-5.35
2023-02-08T15:07:46.055Z,-5.27
2023-02-08T15:10:15.202Z,-5.21
2023-02-08T15:12:46.183Z,-5.18
2023-02-08T15:15:29.463Z,-5.12
2023-02-08T15:17:57.259Z,-5.05
2023-02-08T15:20:29.312Z,-4.96
2023-02-08T15:23:05.079Z,-4.93
2023-02-08T15:25:36.849Z,-4.90
2023-02-08T15:28:19.245Z,-4.90
2023-02-08T15:30:47.228Z,-5.05
2023-02-08T15:33:16.967Z,-5.28
2023-02-08T15:35:45.234Z,-5.52
2023-02-08T15:38:17.619Z,-5.73
2023-02-08T15:40:45.751Z,-5.80
2023-02-08T15:43:14.004Z,-5.79
2023-02-08T15:45:41.949Z,-5.78
2023-02-08T15:48:10.932Z,-5.82
2023-02-08T15:50:38.741Z,-5.83
2023-02-08T15:53:07.288Z,-5.78
2023-02-08T15:55:39.456Z,-5.76
2023-02-08T15:58:30.609Z,-5.84
2023-02-08T16:00:59.918Z,-6.01
2023-02-08T16:03:30.145Z,-6.07
2023-02-08T16:06:00.013Z,-6.01
2023-02-08T16:08:30.577Z,-5.99
2023-02-08T16:11:12.902Z,-6.03
2023-02-08T16:13:42.102Z,-6.18
2023-02-08T16:16:19.893Z,-6.37
2023-02-08T16:18:50.603Z,-6.53
2023-02-08T16:21:42.843Z,-6.49
2023-02-08T16:24:14.224Z,-6.38
2023-02-08T16:26:59.883Z,-6.28
2023-02-08T16:29:36.229Z,-6.16
2023-02-08T16:32:27.763Z,-6.11
2023-02-08T16:34:57.654Z,-6.16
2023-02-08T16:37:29.305Z,-6.18
2023-02-08T16:39:58.918Z,-6.21
2023-02-08T16:42:40.118Z,-6.24
2023-02-08T16:45:16.207Z,-6.24
2023-02-08T16:47:54.105Z,-6.23
2023-02-08T16:50:26.818Z,-6.19
2023-02-08T16:53:04.338Z,-6.08
2023-02-08T16:55:33.003Z,-5.95
2023-02-08T16:58:00.857Z,-5.83
2023-02-08T17:00:33.848Z,-5.82
2023-02-08T17:03:01.783Z,-5.77
2023-02-08T17:05:31.256Z,-5.72
2023-02-08T17:07:59.259Z,-5.64
2023-02-08T17:10:30.677Z,-5.61
2023-02-08T17:13:17.402Z,-5.59
2023-02-08T17:15:48.066Z,-5.67
2023-02-08T17:18:17.258Z,-5.73
2023-02-08T17:20:45.182Z,-5.73
2023-02-08T17:23:13.866Z,-5.75
2023-02-08T17:25:42.061Z,-5.73
2023-02-08T17:28:15.186Z,-5.70
2023-02-08T17:30:45.462Z,-5.76
2023-02-08T17:33:18.748Z,-5.97
2023-02-08T17:35:48.532Z,-6.21
2023-02-08T17:38:16.553Z,-6.30
2023-02-08T17:40:44.554Z,-6.30
2023-02-08T17:43:12.699Z,-6.35
2023-02-08T17:45:41.271Z,-6.31
2023-02-08T17:48:09.455Z,-6.27
2023-02-08T17:50:37.404Z,-6.32
2023-02-08T17:53:05.284Z,-6.42
2023-02-08T17:55:33.137Z,-6.39
2023-02-08T17:58:00.901Z,-6.37
2023-02-08T18:00:28.710Z,-6.35
2023-02-08T18:02:57.940Z,-6.31
2023-02-08T18:05:27.796Z,-6.24
2023-02-08T18:07:58.349Z,-6.24
2023-02-08T18:10:26.844Z,-6.27
2023-02-08T18:12:54.599Z,-6.25
2023-02-08T18:15:22.636Z,-6.26
2023-02-08T18:17:54.174Z,-6.29
2023-02-08T18:20:22.318Z,-6.25
2023-02-08T18:22:50.084Z,-6.20
2023-02-08T18:25:18.128Z,-6.23
2023-02-08T18:27:45.831Z,-6.26
2023-02-08T18:30:14.018Z,-6.25
2023-02-08T18:32:41.815Z,-6.22
2023-02-08T18:35:09.675Z,-6.29
2023-02-08T18:37:37.996Z,-6.31
2023-02-08T18:40:07.231Z,-6.32
2023-02-08T18:42:40.890Z,-6.26
2023-02-08T18:45:09.451Z,-6.25
2023-02-08T18:47:37.693Z,-6.27
2023-02-08T18:50:06.307Z,-6.39
2023-02-08T18:52:34.065Z,-6.47
2023-02-08T18:55:01.670Z,-6.45
2023-02-08T18:57:29.544Z,-6.40
2023-02-08T18:59:57.435Z,-6.32
2023-02-08T19:02:27.578Z,-6.30
2023-02-08T19:04:55.610Z,-6.40
2023-02-08T19:07:23.533Z,-6.47
2023-02-08T19:09:51.321Z,-6.47
2023-02-08T19:12:19.378Z,-6.51
2023-02-08T19:14:49.902Z,-6.62
2023-02-08T19:17:17.694Z,-6.66
2023-02-08T19:19:45.735Z,-6.62
2023-02-08T19:22:13.489Z,-6.54
2023-02-08T19:24:41.332Z,-6.47
2023-02-08T19:27:09.110Z,-6.56
2023-02-08T19:29:37.021Z,-6.74
2023-02-08T19:32:05.276Z,-6.95
2023-02-08T19:34:33.256Z,-7.05
2023-02-08T19:37:01.240Z,-7.22
2023-02-08T19:39:29.027Z,-7.35
2023-02-08T19:41:59.171Z,-7.45
2023-02-08T19:44:30.179Z,-7.55
2023-02-08T19:46:58.291Z,-7.65
2023-02-08T19:49:26.446Z,-7.75
2023-02-08T19:51:54.519Z,-7.76
2023-02-08T19:54:22.359Z,-7.85
2023-02-08T19:56:55.020Z,-7.93
2023-02-08T19:59:26.116Z,-8.05
2023-02-08T20:01:54.681Z,-8.19
2023-02-08T20:04:22.654Z,-8.28
2023-02-08T20:06:53.703Z,-8.39
2023-02-08T20:09:21.673Z,-8.44
2023-02-08T20:11:56.748Z,-8.45
2023-02-08T20:14:25.557Z,-8.41
2023-02-08T20:16:53.497Z,-8.26
2023-02-08T20:19:21.526Z,-8.11
2023-02-08T20:21:49.322Z,-8.00
2023-02-08T20:24:17.192Z,-7.92
2023-02-08T20:26:45.983Z,-7.80
2023-02-08T20:29:13.988Z,-7.68
2023-02-08T20:31:43.165Z,-7.65
2023-02-08T20:34:13.073Z,-7.64
2023-02-08T20:36:49.626Z,-7.62
2023-02-08T20:39:22.419Z,-7.57
2023-02-08T20:41:50.321Z,-7.48
2023-02-08T20:44:18.545Z,-7.34
2023-02-08T20:46:46.994Z,-7.26
2023-02-08T20:49:17.960Z,-7.27
2023-02-08T20:51:45.618Z,-7.19
2023-02-08T20:54:13.359Z,-7.12
2023-02-08T20:56:41.308Z,-7.05
2023-02-08T20:59:09.758Z,-7.08
2023-02-08T21:01:37.614Z,-7.17
2023-02-08T21:04:05.562Z,-7.32
2023-02-08T21:06:34.933Z,-7.50
2023-02-08T21:09:10.728Z,-7.65
2023-02-08T21:11:38.654Z,-7.72
2023-02-08T21:14:06.687Z,-7.75
2023-02-08T21:16:34.574Z,-7.79
2023-02-08T21:19:02.396Z,-7.79
2023-02-08T21:21:30.321Z,-7.77
2023-02-08T21:23:58.272Z,-7.73
2023-02-08T21:26:26.465Z,-7.69
2023-02-08T21:28:55.349Z,-7.68
2023-02-08T21:31:23.794Z,-7.67
2023-02-08T21:33:51.857Z,-7.65
2023-02-08T21:36:22.041Z,-7.61
2023-02-08T21:38:49.957Z,-7.64
2023-02-08T21:41:28.043Z,-7.68
2023-02-08T21:43:57.413Z,-7.66
2023-02-08T21:46:25.330Z,-7.70
2023-02-08T21:49:11.446Z,-7.70
2023-02-08T21:51:57.916Z,-7.60
2023-02-08T21:54:42.195Z,-7.53
2023-02-08T21:57:15.855Z,-7.49
2023-02-08T21:59:43.904Z,-7.49
2023-02-08T22:02:17.319Z,-7.50
2023-02-08T22:05:03.383Z,-7.55
2023-02-08T22:07:42.085Z,-7.59
2023-02-08T22:10:11.279Z,-7.58
2023-02-08T22:12:41.424Z,-7.61
2023-02-08T22:15:13.643Z,-7.61
2023-02-08T22:17:41.637Z,-7.60
2023-02-08T22:20:09.971Z,-7.64
2023-02-08T22:22:37.907Z,-7.68
2023-02-08T22:25:05.959Z,-7.70
2023-02-08T22:27:34.899Z,-7.73
2023-02-08T22:30:02.662Z,-7.73
2023-02-08T22:32:30.544Z,-7.75
2023-02-08T22:34:58.382Z,-7.75
2023-02-08T22:37:26.222Z,-7.80
2023-02-08T22:39:53.990Z,-7.78
2023-02-08T22:42:21.776Z,-7.75
2023-02-08T22:44:49.553Z,-7.82
2023-02-08T22:47:17.357Z,-7.94
2023-02-08T22:49:45.113Z,-8.04
2023-02-08T22:52:12.923Z,-8.07
2023-02-08T22:54:42.153Z,-8.06
2023-02-08T22:57:10.353Z,-8.01
2023-02-08T22:59:39.035Z,-7.96
2023-02-08T23:02:06.782Z,-7.95
2023-02-08T23:04:34.549Z,-7.98
2023-02-08T23:07:02.382Z,-7.94
2023-02-08T23:09:30.166Z,-7.95
2023-02-08T23:11:58.024Z,-8.02
2023-02-08T23:14:26.440Z,-8.02
2023-02-08T23:16:54.329Z,-7.95
2023-02-08T23:19:22.270Z,-7.89
2023-02-08T23:21:50.180Z,-7.88
2023-02-08T23:24:17.991Z,-7.83
2023-02-08T23:26:45.798Z,-7.77
2023-02-08T23:29:13.562Z,-7.75
2023-02-08T23:31:41.693Z,-7.75
2023-02-08T23:34:11.724Z,-7.82
2023-02-08T23:36:39.601Z,-7.89
2023-02-08T23:39:08.120Z,-8.02
2023-02-08T23:41:35.960Z,-8.06
2023-02-08T23:44:03.790Z,-8.15
2023-02-08T23:46:32.026Z,-8.15
2023-02-08T23:48:59.966Z,-8.21
2023-02-08T23:51:27.841Z,-8.46
2023-02-08T23:53:55.829Z,-8.70
2023-02-08T23:56:28.117Z,-8.91
2023-02-08T23:58:57.866Z,-9.14
